sensor_id;sensor_type;location;lat;lon;timestamp;pressure;altitude;pressure_sealevel;temperature;humidity
70437;BME280;57877;39.750;-104.894;2022-11-03T00:00:25;82777.05;;;19.35;9.15
70437;BME280;57877;39.750;-104.894;2022-11-03T00:05:16;82795.13;;;18.90;9.33
70437;BME280;57877;39.750;-104.894;2022-11-03T00:07:43;82796.82;;;19.06;9.46
70437;BME280;57877;39.750;-104.894;2022-11-03T00:10:09;82795.12;;;18.86;9.36
70437;BME280;57877;39.750;-104.894;2022-11-03T00:12:34;82793.16;;;18.15;9.89
70437;BME280;57877;39.750;-104.894;2022-11-03T00:15:01;82794.10;;;18.07;9.94
70437;BME280;57877;39.750;-104.894;2022-11-03T00:17:27;82800.23;;;17.83;10.11
70437;BME280;57877;39.750;-104.894;2022-11-03T00:19:52;82802.70;;;18.19;9.99
70437;BME280;57877;39.750;-104.894;2022-11-03T00:24:44;82822.78;;;18.52;9.92
70437;BME280;57877;39.750;-104.894;2022-11-03T00:27:10;82830.43;;;18.32;9.89
70437;BME280;57877;39.750;-104.894;2022-11-03T00:29:36;82830.31;;;18.25;10.17
70437;BME280;57877;39.750;-104.894;2022-11-03T00:32:02;82828.34;;;17.85;10.15
70437;BME280;57877;39.750;-104.894;2022-11-03T00:34:28;82839.50;;;17.47;10.62
70437;BME280;57877;39.750;-104.894;2022-11-03T00:36:54;82845.76;;;18.05;10.32
70437;BME280;57877;39.750;-104.894;2022-11-03T00:39:20;82847.08;;;18.19;10.24
70437;BME280;57877;39.750;-104.894;2022-11-03T00:41:46;82848.32;;;18.08;10.25
70437;BME280;57877;39.750;-104.894;2022-11-03T00:44:11;82846.55;;;18.04;10.20
70437;BME280;57877;39.750;-104.894;2022-11-03T00:46:37;82846.18;;;17.17;10.73
70437;BME280;57877;39.750;-104.894;2022-11-03T00:49:04;82848.18;;;17.74;10.94
70437;BME280;57877;39.750;-104.894;2022-11-03T00:51:29;82847.35;;;17.35;10.66
70437;BME280;57877;39.750;-104.894;2022-11-03T00:53:57;82851.32;;;17.18;10.47
70437;BME280;57877;39.750;-104.894;2022-11-03T00:56:23;82847.60;;;17.13;10.69
70437;BME280;57877;39.750;-104.894;2022-11-03T01:11:02;82856.70;;;16.56;11.25
70437;BME280;57877;39.750;-104.894;2022-11-03T01:15:49;82853.63;;;16.52;11.06
70437;BME280;57877;39.750;-104.894;2022-11-03T01:18:14;82859.89;;;16.47;11.11
70437;BME280;57877;39.750;-104.894;2022-11-03T01:25:32;82868.18;;;16.44;11.18
70437;BME280;57877;39.750;-104.894;2022-11-03T01:27:57;82867.57;;;16.50;11.08
70437;BME280;57877;39.750;-104.894;2022-11-03T01:30:23;82874.82;;;16.17;11.08
70437;BME280;57877;39.750;-104.894;2022-11-03T01:32:49;82869.38;;;16.39;10.86
70437;BME280;57877;39.750;-104.894;2022-11-03T01:35:15;82870.25;;;16.16;11.08
70437;BME280;57877;39.750;-104.894;2022-11-03T01:37:41;82870.55;;;16.42;11.00
70437;BME280;57877;39.750;-104.894;2022-11-03T01:40:09;82873.88;;;16.59;11.10
70437;BME280;57877;39.750;-104.894;2022-11-03T01:47:27;82876.58;;;16.47;11.95
70437;BME280;57877;39.750;-104.894;2022-11-03T01:49:54;82879.79;;;16.30;11.74
70437;BME280;57877;39.750;-104.894;2022-11-03T01:54:45;82881.54;;;16.04;12.12
70437;BME280;57877;39.750;-104.894;2022-11-03T01:57:14;82888.88;;;15.87;12.47
70437;BME280;57877;39.750;-104.894;2022-11-03T01:59:35;82890.18;;;15.65;12.56
70437;BME280;57877;39.750;-104.894;2022-11-03T02:02:01;82890.16;;;15.63;12.46
70437;BME280;57877;39.750;-104.894;2022-11-03T02:04:30;82884.56;;;15.39;12.23
70437;BME280;57877;39.750;-104.894;2022-11-03T02:07:01;82893.36;;;14.89;12.35
70437;BME280;57877;39.750;-104.894;2022-11-03T02:09:20;82893.56;;;14.88;12.50
70437;BME280;57877;39.750;-104.894;2022-11-03T02:11:45;82888.75;;;14.80;12.49
70437;BME280;57877;39.750;-104.894;2022-11-03T02:14:11;82894.40;;;14.94;12.61
70437;BME280;57877;39.750;-104.894;2022-11-03T02:16:37;82896.14;;;14.83;12.87
70437;BME280;57877;39.750;-104.894;2022-11-03T02:19:04;82892.20;;;15.08;12.77
70437;BME280;57877;39.750;-104.894;2022-11-03T02:21:33;82889.46;;;15.18;12.76
70437;BME280;57877;39.750;-104.894;2022-11-03T02:24:00;82889.61;;;14.98;12.75
70437;BME280;57877;39.750;-104.894;2022-11-03T02:26:21;82882.31;;;14.50;12.65
70437;BME280;57877;39.750;-104.894;2022-11-03T02:28:47;82880.14;;;14.41;12.55
70437;BME280;57877;39.750;-104.894;2022-11-03T02:31:17;82882.79;;;14.87;12.36
70437;BME280;57877;39.750;-104.894;2022-11-03T02:33:47;82883.26;;;14.85;12.43
70437;BME280;57877;39.750;-104.894;2022-11-03T02:36:09;82882.30;;;14.91;12.26
70437;BME280;57877;39.750;-104.894;2022-11-03T02:38:33;82883.39;;;14.84;12.28
70437;BME280;57877;39.750;-104.894;2022-11-03T02:40:59;82879.16;;;14.47;12.24
70437;BME280;57877;39.750;-104.894;2022-11-03T02:43:28;82877.47;;;14.86;12.13
70437;BME280;57877;39.750;-104.894;2022-11-03T02:45:50;82876.74;;;14.85;12.12
70437;BME280;57877;39.750;-104.894;2022-11-03T02:48:16;82875.33;;;14.79;12.25
70437;BME280;57877;39.750;-104.894;2022-11-03T02:50:41;82875.24;;;14.80;12.36
70437;BME280;57877;39.750;-104.894;2022-11-03T02:53:10;82877.08;;;14.09;11.98
70437;BME280;57877;39.750;-104.894;2022-11-03T02:55:37;82874.04;;;14.01;12.03
70437;BME280;57877;39.750;-104.894;2022-11-03T02:58:02;82869.73;;;13.36;12.14
70437;BME280;57877;39.750;-104.894;2022-11-03T03:00:24;82867.19;;;13.34;11.92
70437;BME280;57877;39.750;-104.894;2022-11-03T03:02:56;82862.09;;;13.52;12.10
70437;BME280;57877;39.750;-104.894;2022-11-03T03:05:19;82860.80;;;12.97;12.04
70437;BME280;57877;39.750;-104.894;2022-11-03T03:07:46;82856.23;;;13.55;11.79
70437;BME280;57877;39.750;-104.894;2022-11-03T03:10:11;82854.82;;;13.89;11.56
70437;BME280;57877;39.750;-104.894;2022-11-03T03:12:36;82859.48;;;14.02;11.19
70437;BME280;57877;39.750;-104.894;2022-11-03T03:15:01;82856.98;;;13.80;10.95
70437;BME280;57877;39.750;-104.894;2022-11-03T03:17:31;82864.36;;;13.04;11.02
70437;BME280;57877;39.750;-104.894;2022-11-03T03:19:57;82867.79;;;13.69;10.83
70437;BME280;57877;39.750;-104.894;2022-11-03T03:22:24;82864.69;;;13.63;10.80
70437;BME280;57877;39.750;-104.894;2022-11-03T03:24:50;82868.05;;;14.30;10.25
70437;BME280;57877;39.750;-104.894;2022-11-03T03:27:12;82869.80;;;14.13;10.21
70437;BME280;57877;39.750;-104.894;2022-11-03T03:29:39;82870.43;;;14.37;10.21
70437;BME280;57877;39.750;-104.894;2022-11-03T03:32:06;82873.46;;;13.81;10.53
70437;BME280;57877;39.750;-104.894;2022-11-03T03:34:29;82871.31;;;14.47;10.11
70437;BME280;57877;39.750;-104.894;2022-11-03T03:36:56;82870.62;;;14.06;10.17
70437;BME280;57877;39.750;-104.894;2022-11-03T03:39:21;82872.35;;;14.08;10.14
70437;BME280;57877;39.750;-104.894;2022-11-03T03:41:47;82869.21;;;13.79;10.35
70437;BME280;57877;39.750;-104.894;2022-11-03T03:44:12;82867.78;;;14.21;10.13
70437;BME280;57877;39.750;-104.894;2022-11-03T03:46:41;82868.90;;;14.10;10.20
70437;BME280;57877;39.750;-104.894;2022-11-03T03:49:04;82866.54;;;14.01;10.09
70437;BME280;57877;39.750;-104.894;2022-11-03T03:51:31;82865.45;;;14.54;9.85
70437;BME280;57877;39.750;-104.894;2022-11-03T03:53:56;82863.92;;;14.74;9.94
70437;BME280;57877;39.750;-104.894;2022-11-03T03:56:26;82858.10;;;14.36;9.85
70437;BME280;57877;39.750;-104.894;2022-11-03T03:58:48;82863.12;;;14.38;9.87
70437;BME280;57877;39.750;-104.894;2022-11-03T04:01:14;82866.18;;;14.54;9.67
70437;BME280;57877;39.750;-104.894;2022-11-03T04:03:40;82872.01;;;14.51;9.57
70437;BME280;57877;39.750;-104.894;2022-11-03T04:06:06;82874.49;;;15.22;9.34
70437;BME280;57877;39.750;-104.894;2022-11-03T04:08:37;82872.69;;;14.52;9.49
70437;BME280;57877;39.750;-104.894;2022-11-03T04:10:57;82873.30;;;14.47;9.51
70437;BME280;57877;39.750;-104.894;2022-11-03T04:13:24;82874.25;;;14.35;9.64
70437;BME280;57877;39.750;-104.894;2022-11-03T04:15:49;82880.09;;;14.79;9.54
70437;BME280;57877;39.750;-104.894;2022-11-03T04:18:21;82881.04;;;14.66;9.41
70437;BME280;57877;39.750;-104.894;2022-11-03T04:20:42;82885.42;;;15.33;9.18
70437;BME280;57877;39.750;-104.894;2022-11-03T04:23:07;82890.08;;;14.84;9.33
70437;BME280;57877;39.750;-104.894;2022-11-03T04:25:34;82892.71;;;15.00;9.50
70437;BME280;57877;39.750;-104.894;2022-11-03T04:27:59;82885.41;;;14.10;9.60
70437;BME280;57877;39.750;-104.894;2022-11-03T04:30:25;82886.10;;;14.98;9.38
70437;BME280;57877;39.750;-104.894;2022-11-03T04:32:52;82889.05;;;14.77;9.42
70437;BME280;57877;39.750;-104.894;2022-11-03T04:35:19;82887.65;;;14.89;9.38
70437;BME280;57877;39.750;-104.894;2022-11-03T04:37:44;82890.30;;;14.53;9.51
70437;BME280;57877;39.750;-104.894;2022-11-03T04:40:14;82892.95;;;14.72;9.73
70437;BME280;57877;39.750;-104.894;2022-11-03T04:42:35;82890.21;;;13.98;9.89
70437;BME280;57877;39.750;-104.894;2022-11-03T04:45:05;82891.59;;;14.49;9.67
70437;BME280;57877;39.750;-104.894;2022-11-03T04:47:27;82884.50;;;14.33;9.84
70437;BME280;57877;39.750;-104.894;2022-11-03T04:49:53;82879.45;;;14.03;9.85
70437;BME280;57877;39.750;-104.894;2022-11-03T04:52:21;82887.11;;;14.55;9.66
70437;BME280;57877;39.750;-104.894;2022-11-03T04:54:47;82887.95;;;14.51;9.64
70437;BME280;57877;39.750;-104.894;2022-11-03T04:57:13;82882.08;;;14.75;9.67
70437;BME280;57877;39.750;-104.894;2022-11-03T04:59:37;82879.33;;;14.77;9.69
70437;BME280;57877;39.750;-104.894;2022-11-03T05:02:07;82880.28;;;14.00;9.87
70437;BME280;57877;39.750;-104.894;2022-11-03T05:04:29;82873.38;;;14.31;10.14
70437;BME280;57877;39.750;-104.894;2022-11-03T05:06:55;82877.55;;;14.22;10.14
70437;BME280;57877;39.750;-104.894;2022-11-03T05:09:25;82875.70;;;13.75;10.08
70437;BME280;57877;39.750;-104.894;2022-11-03T05:11:47;82868.08;;;14.02;10.17
70437;BME280;57877;39.750;-104.894;2022-11-03T05:14:15;82874.20;;;13.74;10.16
70437;BME280;57877;39.750;-104.894;2022-11-03T05:16:39;82870.28;;;13.69;10.36
70437;BME280;57877;39.750;-104.894;2022-11-03T05:19:10;82867.49;;;13.80;10.34
70437;BME280;57877;39.750;-104.894;2022-11-03T05:21:31;82872.66;;;14.05;10.27
70437;BME280;57877;39.750;-104.894;2022-11-03T05:24:02;82869.12;;;13.21;10.54
70437;BME280;57877;39.750;-104.894;2022-11-03T05:26:27;82867.04;;;13.82;10.54
70437;BME280;57877;39.750;-104.894;2022-11-03T05:28:51;82869.65;;;13.72;10.46
70437;BME280;57877;39.750;-104.894;2022-11-03T05:31:20;82875.45;;;13.44;10.67
70437;BME280;57877;39.750;-104.894;2022-11-03T05:33:41;82866.39;;;13.74;10.41
70437;BME280;57877;39.750;-104.894;2022-11-03T05:36:12;82861.79;;;14.16;10.37
70437;BME280;57877;39.750;-104.894;2022-11-03T05:38:34;82868.21;;;13.94;10.39
70437;BME280;57877;39.750;-104.894;2022-11-03T05:40:59;82870.14;;;14.01;10.50
70437;BME280;57877;39.750;-104.894;2022-11-03T05:43:25;82867.07;;;13.08;10.82
70437;BME280;57877;39.750;-104.894;2022-11-03T05:50:43;82863.58;;;13.18;10.84
70437;BME280;57877;39.750;-104.894;2022-11-03T05:55:35;82860.22;;;13.86;10.45
70437;BME280;57877;39.750;-104.894;2022-11-03T05:58:11;82855.21;;;13.75;10.48
70437;BME280;57877;39.750;-104.894;2022-11-03T06:00:30;82857.47;;;13.43;10.65
70437;BME280;57877;39.750;-104.894;2022-11-03T06:02:53;82852.34;;;13.59;10.78
70437;BME280;57877;39.750;-104.894;2022-11-03T06:05:21;82855.25;;;13.18;10.84
70437;BME280;57877;39.750;-104.894;2022-11-03T06:07:45;82849.15;;;13.43;10.68
70437;BME280;57877;39.750;-104.894;2022-11-03T06:10:19;82842.38;;;12.72;10.81
70437;BME280;57877;39.750;-104.894;2022-11-03T06:12:36;82845.59;;;13.10;10.87
70437;BME280;57877;39.750;-104.894;2022-11-03T06:15:07;82843.83;;;13.06;10.93
70437;BME280;57877;39.750;-104.894;2022-11-03T06:17:28;82846.97;;;13.36;11.05
70437;BME280;57877;39.750;-104.894;2022-11-03T06:19:56;82847.06;;;12.43;11.49
70437;BME280;57877;39.750;-104.894;2022-11-03T06:22:23;82840.30;;;12.87;11.19
70437;BME280;57877;39.750;-104.894;2022-11-03T06:24:46;82842.28;;;12.74;11.07
70437;BME280;57877;39.750;-104.894;2022-11-03T06:27:13;82839.27;;;13.07;11.07
70437;BME280;57877;39.750;-104.894;2022-11-03T06:29:38;82839.85;;;13.20;10.99
70437;BME280;57877;39.750;-104.894;2022-11-03T06:32:09;82846.87;;;12.98;11.01
70437;BME280;57877;39.750;-104.894;2022-11-03T06:34:36;82843.83;;;13.44;10.98
70437;BME280;57877;39.750;-104.894;2022-11-03T06:36:57;82841.67;;;12.89;11.22
70437;BME280;57877;39.750;-104.894;2022-11-03T06:39:23;82835.46;;;12.80;11.36
70437;BME280;57877;39.750;-104.894;2022-11-03T06:41:48;82841.55;;;12.80;11.35
70437;BME280;57877;39.750;-104.894;2022-11-03T06:44:21;82844.59;;;12.61;11.56
70437;BME280;57877;39.750;-104.894;2022-11-03T06:46:40;82849.05;;;12.60;11.34
70437;BME280;57877;39.750;-104.894;2022-11-03T06:51:35;82851.52;;;12.33;11.48
70437;BME280;57877;39.750;-104.894;2022-11-03T06:53:59;82840.32;;;12.24;11.52
70437;BME280;57877;39.750;-104.894;2022-11-03T06:56:25;82844.32;;;12.73;11.26
70437;BME280;57877;39.750;-104.894;2022-11-03T06:58:56;82843.84;;;12.51;11.54
70437;BME280;57877;39.750;-104.894;2022-11-03T07:01:19;82843.18;;;12.37;11.60
70437;BME280;57877;39.750;-104.894;2022-11-03T07:03:42;82840.61;;;13.16;11.09
70437;BME280;57877;39.750;-104.894;2022-11-03T07:06:16;82851.57;;;12.97;11.22
70437;BME280;57877;39.750;-104.894;2022-11-03T07:08:36;82851.30;;;12.46;11.34
70437;BME280;57877;39.750;-104.894;2022-11-03T07:11:08;82859.78;;;12.43;11.37
70437;BME280;57877;39.750;-104.894;2022-11-03T07:13:26;82853.39;;;13.24;11.02
70437;BME280;57877;39.750;-104.894;2022-11-03T07:15:50;82855.41;;;13.53;10.85
70437;BME280;57877;39.750;-104.894;2022-11-03T07:18:20;82857.46;;;13.04;10.92
70437;BME280;57877;39.750;-104.894;2022-11-03T07:20:42;82859.60;;;13.08;10.92
70437;BME280;57877;39.750;-104.894;2022-11-03T07:23:12;82832.29;;;12.90;11.45
70437;BME280;57877;39.750;-104.894;2022-11-03T07:25:34;82849.49;;;12.69;11.65
70437;BME280;57877;39.750;-104.894;2022-11-03T07:28:01;82856.36;;;12.74;11.52
70437;BME280;57877;39.750;-104.894;2022-11-03T07:32:53;82836.03;;;13.21;11.27
70437;BME280;57877;39.750;-104.894;2022-11-03T07:35:25;82834.67;;;12.87;11.30
70437;BME280;57877;39.750;-104.894;2022-11-03T07:37:44;82828.36;;;12.90;11.52
70437;BME280;57877;39.750;-104.894;2022-11-03T07:40:13;82831.89;;;12.48;11.73
70437;BME280;57877;39.750;-104.894;2022-11-03T07:42:36;82825.46;;;13.25;11.67
70437;BME280;57877;39.750;-104.894;2022-11-03T07:45:06;82828.10;;;13.24;11.36
70437;BME280;57877;39.750;-104.894;2022-11-03T07:47:28;82827.79;;;12.92;11.64
70437;BME280;57877;39.750;-104.894;2022-11-03T07:49:54;82825.78;;;12.88;11.63
70437;BME280;57877;39.750;-104.894;2022-11-03T07:52:23;82824.43;;;12.79;11.87
70437;BME280;57877;39.750;-104.894;2022-11-03T07:54:46;82823.18;;;12.60;11.93
70437;BME280;57877;39.750;-104.894;2022-11-03T07:57:21;82829.08;;;12.34;12.14
70437;BME280;57877;39.750;-104.894;2022-11-03T07:59:39;82829.71;;;12.66;12.10
70437;BME280;57877;39.750;-104.894;2022-11-03T08:02:13;82828.33;;;12.57;12.18
70437;BME280;57877;39.750;-104.894;2022-11-03T08:04:31;82831.24;;;12.36;12.40
70437;BME280;57877;39.750;-104.894;2022-11-03T08:06:56;82833.60;;;12.56;12.37
70437;BME280;57877;39.750;-104.894;2022-11-03T08:09:22;82838.54;;;12.36;12.48
70437;BME280;57877;39.750;-104.894;2022-11-03T08:11:48;82834.45;;;12.34;12.62
70437;BME280;57877;39.750;-104.894;2022-11-03T08:14:14;82832.06;;;12.57;12.51
70437;BME280;57877;39.750;-104.894;2022-11-03T08:16:40;82831.49;;;12.19;12.62
70437;BME280;57877;39.750;-104.894;2022-11-03T08:19:06;82829.75;;;12.39;12.58
70437;BME280;57877;39.750;-104.894;2022-11-03T08:21:32;82830.19;;;12.58;12.69
70437;BME280;57877;39.750;-104.894;2022-11-03T08:23:57;82830.40;;;12.46;12.81
70437;BME280;57877;39.750;-104.894;2022-11-03T08:26:23;82831.37;;;12.34;13.02
70437;BME280;57877;39.750;-104.894;2022-11-03T08:28:49;82826.97;;;12.27;12.99
70437;BME280;57877;39.750;-104.894;2022-11-03T08:31:16;82822.88;;;12.13;12.96
70437;BME280;57877;39.750;-104.894;2022-11-03T08:33:41;82818.97;;;12.33;13.50
70437;BME280;57877;39.750;-104.894;2022-11-03T08:48:18;82804.67;;;11.54;13.48
70437;BME280;57877;39.750;-104.894;2022-11-03T08:50:43;82799.57;;;12.29;13.19
70437;BME280;57877;39.750;-104.894;2022-11-03T08:53:09;82805.06;;;11.46;13.58
70437;BME280;57877;39.750;-104.894;2022-11-03T08:55:35;82803.43;;;11.87;13.43
70437;BME280;57877;39.750;-104.894;2022-11-03T08:58:01;82804.47;;;12.15;13.52
70437;BME280;57877;39.750;-104.894;2022-11-03T09:00:27;82800.66;;;12.04;13.63
70437;BME280;57877;39.750;-104.894;2022-11-03T09:02:53;82803.98;;;11.92;13.69
70437;BME280;57877;39.750;-104.894;2022-11-03T09:05:19;82801.03;;;11.79;14.51
70437;BME280;57877;39.750;-104.894;2022-11-03T09:07:45;82794.57;;;11.83;14.62
70437;BME280;57877;39.750;-104.894;2022-11-03T09:10:11;82793.23;;;12.00;14.77
70437;BME280;57877;39.750;-104.894;2022-11-03T09:12:37;82786.73;;;11.32;15.25
70437;BME280;57877;39.750;-104.894;2022-11-03T09:15:04;82782.59;;;11.27;15.30
70437;BME280;57877;39.750;-104.894;2022-11-03T09:17:29;82777.95;;;11.30;15.75
70437;BME280;57877;39.750;-104.894;2022-11-03T09:19:55;82767.43;;;10.85;15.85
70437;BME280;57877;39.750;-104.894;2022-11-03T09:22:21;82766.28;;;10.96;15.91
70437;BME280;57877;39.750;-104.894;2022-11-03T09:24:47;82770.98;;;10.43;15.23
70437;BME280;57877;39.750;-104.894;2022-11-03T09:27:13;82768.93;;;10.85;15.39
70437;BME280;57877;39.750;-104.894;2022-11-03T09:34:31;82757.13;;;11.01;15.79
70437;BME280;57877;39.750;-104.894;2022-11-03T09:36:57;82764.78;;;11.19;16.10
70437;BME280;57877;39.750;-104.894;2022-11-03T09:39:23;82767.35;;;11.08;16.32
70437;BME280;57877;39.750;-104.894;2022-11-03T09:41:49;82763.31;;;11.00;16.50
70437;BME280;57877;39.750;-104.894;2022-11-03T09:44:15;82763.23;;;11.03;16.53
70437;BME280;57877;39.750;-104.894;2022-11-03T09:46:41;82763.44;;;10.58;16.98
70437;BME280;57877;39.750;-104.894;2022-11-03T09:49:07;82759.76;;;10.48;17.22
70437;BME280;57877;39.750;-104.894;2022-11-03T09:51:35;82756.82;;;10.56;17.65
70437;BME280;57877;39.750;-104.894;2022-11-03T09:54:02;82757.69;;;9.93;18.28
70437;BME280;57877;39.750;-104.894;2022-11-03T09:56:25;82755.93;;;10.76;18.06
70437;BME280;57877;39.750;-104.894;2022-11-03T09:58:51;82754.03;;;10.85;18.19
70437;BME280;57877;39.750;-104.894;2022-11-03T10:01:16;82755.85;;;10.87;18.35
70437;BME280;57877;39.750;-104.894;2022-11-03T10:03:43;82757.49;;;11.12;18.22
70437;BME280;57877;39.750;-104.894;2022-11-03T10:06:09;82761.73;;;11.20;18.32
70437;BME280;57877;39.750;-104.894;2022-11-03T10:08:36;82763.01;;;11.12;18.18
70437;BME280;57877;39.750;-104.894;2022-11-03T10:11:01;82760.13;;;11.20;18.08
70437;BME280;57877;39.750;-104.894;2022-11-03T10:13:29;82751.47;;;11.22;17.89
70437;BME280;57877;39.750;-104.894;2022-11-03T10:15:52;82748.27;;;11.32;17.72
70437;BME280;57877;39.750;-104.894;2022-11-03T10:18:18;82744.91;;;11.48;17.60
70437;BME280;57877;39.750;-104.894;2022-11-03T10:20:44;82749.39;;;11.65;17.87
70437;BME280;57877;39.750;-104.894;2022-11-03T10:23:10;82748.88;;;11.83;17.53
70437;BME280;57877;39.750;-104.894;2022-11-03T10:25:38;82753.91;;;11.80;17.69
70437;BME280;57877;39.750;-104.894;2022-11-03T10:30:29;82748.34;;;11.63;17.85
70437;BME280;57877;39.750;-104.894;2022-11-03T10:32:54;82748.58;;;11.38;18.30
70437;BME280;57877;39.750;-104.894;2022-11-03T10:37:46;82747.27;;;11.40;18.47
70437;BME280;57877;39.750;-104.894;2022-11-03T10:42:38;82745.62;;;11.22;18.47
70437;BME280;57877;39.750;-104.894;2022-11-03T10:45:09;82751.95;;;11.24;18.84
70437;BME280;57877;39.750;-104.894;2022-11-03T10:47:34;82756.59;;;10.55;19.27
70437;BME280;57877;39.750;-104.894;2022-11-03T10:49:56;82758.18;;;11.26;18.95
70437;BME280;57877;39.750;-104.894;2022-11-03T10:52:24;82761.58;;;10.99;18.80
70437;BME280;57877;39.750;-104.894;2022-11-03T10:54:48;82759.15;;;11.25;19.12
70437;BME280;57877;39.750;-104.894;2022-11-03T10:57:14;82761.21;;;11.27;19.41
70437;BME280;57877;39.750;-104.894;2022-11-03T10:59:40;82762.06;;;11.28;19.30
70437;BME280;57877;39.750;-104.894;2022-11-03T11:02:15;82758.49;;;11.09;19.48
70437;BME280;57877;39.750;-104.894;2022-11-03T11:04:32;82755.92;;;10.92;20.03
70437;BME280;57877;39.750;-104.894;2022-11-03T11:06:57;82758.39;;;10.95;19.68
70437;BME280;57877;39.750;-104.894;2022-11-03T11:09:24;82751.45;;;10.55;20.45
70437;BME280;57877;39.750;-104.894;2022-11-03T11:16:49;82758.83;;;10.48;20.39
70437;BME280;57877;39.750;-104.894;2022-11-03T11:23:59;82770.27;;;10.04;21.17
70437;BME280;57877;39.750;-104.894;2022-11-03T11:26:30;82778.56;;;10.18;21.22
70437;BME280;57877;39.750;-104.894;2022-11-03T11:33:43;82791.03;;;9.39;22.59
70437;BME280;57877;39.750;-104.894;2022-11-03T11:43:27;82821.41;;;9.38;22.90
70437;BME280;57877;39.750;-104.894;2022-11-03T11:48:19;82860.00;;;7.56;22.96
70437;BME280;57877;39.750;-104.894;2022-11-03T11:50:45;82866.80;;;6.50;23.62
70437;BME280;57877;39.750;-104.894;2022-11-03T11:53:13;82881.42;;;7.22;23.09
70437;BME280;57877;39.750;-104.894;2022-11-03T11:55:41;82904.00;;;5.34;24.93
70437;BME280;57877;39.750;-104.894;2022-11-03T11:58:11;82914.95;;;6.71;23.95
70437;BME280;57877;39.750;-104.894;2022-11-03T12:00:31;82933.83;;;4.52;26.93
70437;BME280;57877;39.750;-104.894;2022-11-03T12:02:55;82942.15;;;4.03;27.50
70437;BME280;57877;39.750;-104.894;2022-11-03T12:05:23;82943.37;;;3.97;29.26
70437;BME280;57877;39.750;-104.894;2022-11-03T12:07:46;82939.37;;;3.01;30.89
70437;BME280;57877;39.750;-104.894;2022-11-03T12:10:14;82948.97;;;3.28;30.60
70437;BME280;57877;39.750;-104.894;2022-11-03T12:12:38;82954.56;;;3.43;30.68
70437;BME280;57877;39.750;-104.894;2022-11-03T12:15:05;82965.20;;;3.50;30.86
70437;BME280;57877;39.750;-104.894;2022-11-03T12:17:31;82974.26;;;3.15;31.20
70437;BME280;57877;39.750;-104.894;2022-11-03T12:19:56;82988.30;;;3.05;31.78
70437;BME280;57877;39.750;-104.894;2022-11-03T12:24:50;83005.00;;;3.12;32.11
70437;BME280;57877;39.750;-104.894;2022-11-03T12:27:38;83015.96;;;2.96;33.06
70437;BME280;57877;39.750;-104.894;2022-11-03T12:29:40;83019.00;;;3.21;32.33
70437;BME280;57877;39.750;-104.894;2022-11-03T12:32:06;83027.22;;;2.27;34.35
70437;BME280;57877;39.750;-104.894;2022-11-03T12:34:32;83054.65;;;2.64;33.47
70437;BME280;57877;39.750;-104.894;2022-11-03T12:36:58;83067.76;;;2.61;34.59
70437;BME280;57877;39.750;-104.894;2022-11-03T12:39:24;83088.70;;;2.47;34.32
70437;BME280;57877;39.750;-104.894;2022-11-03T12:41:50;83102.57;;;2.17;35.77
70437;BME280;57877;39.750;-104.894;2022-11-03T12:44:16;83105.00;;;1.95;35.70
70437;BME280;57877;39.750;-104.894;2022-11-03T12:46:41;83106.70;;;1.78;36.87
70437;BME280;57877;39.750;-104.894;2022-11-03T12:49:06;83097.02;;;2.71;34.82
70437;BME280;57877;39.750;-104.894;2022-11-03T12:51:31;83095.60;;;3.20;34.07
70437;BME280;57877;39.750;-104.894;2022-11-03T12:53:57;83101.74;;;2.97;33.96
70437;BME280;57877;39.750;-104.894;2022-11-03T12:56:23;83113.69;;;2.21;34.97
70437;BME280;57877;39.750;-104.894;2022-11-03T12:58:49;83123.33;;;3.70;32.77
70437;BME280;57877;39.750;-104.894;2022-11-03T13:01:15;83143.68;;;3.02;33.71
70437;BME280;57877;39.750;-104.894;2022-11-03T13:03:41;83163.85;;;2.81;34.55
70437;BME280;57877;39.750;-104.894;2022-11-03T13:06:07;83163.91;;;2.89;34.83
70437;BME280;57877;39.750;-104.894;2022-11-03T13:08:33;83172.80;;;2.78;34.63
70437;BME280;57877;39.750;-104.894;2022-11-03T13:10:59;83177.74;;;2.68;34.57
70437;BME280;57877;39.750;-104.894;2022-11-03T13:13:24;83190.22;;;2.18;36.50
70437;BME280;57877;39.750;-104.894;2022-11-03T13:15:49;83190.70;;;1.98;36.82
70437;BME280;57877;39.750;-104.894;2022-11-03T13:18:16;83192.56;;;1.70;37.76
70437;BME280;57877;39.750;-104.894;2022-11-03T13:20:40;83180.46;;;1.51;38.91
70437;BME280;57877;39.750;-104.894;2022-11-03T13:23:05;83181.29;;;2.07;38.11
70437;BME280;57877;39.750;-104.894;2022-11-03T13:25:30;83192.55;;;0.93;39.80
70437;BME280;57877;39.750;-104.894;2022-11-03T13:27:57;83197.68;;;0.40;42.39
70437;BME280;57877;39.750;-104.894;2022-11-03T13:30:22;83195.10;;;1.09;41.85
70437;BME280;57877;39.750;-104.894;2022-11-03T13:32:48;83193.76;;;1.55;40.33
70437;BME280;57877;39.750;-104.894;2022-11-03T13:35:13;83191.72;;;1.81;39.77
70437;BME280;57877;39.750;-104.894;2022-11-03T13:37:39;83192.29;;;1.67;39.58
70437;BME280;57877;39.750;-104.894;2022-11-03T13:40:11;83199.89;;;1.84;38.89
70437;BME280;57877;39.750;-104.894;2022-11-03T13:42:30;83198.07;;;0.25;42.23
70437;BME280;57877;39.750;-104.894;2022-11-03T13:44:56;83186.96;;;0.31;44.65
70437;BME280;57877;39.750;-104.894;2022-11-03T13:47:22;83194.38;;;0.12;44.81
70437;BME280;57877;39.750;-104.894;2022-11-03T13:49:48;83189.64;;;-0.08;46.04
70437;BME280;57877;39.750;-104.894;2022-11-03T13:52:14;83180.34;;;0.36;44.37
70437;BME280;57877;39.750;-104.894;2022-11-03T13:54:39;83180.22;;;0.03;45.20
70437;BME280;57877;39.750;-104.894;2022-11-03T13:57:04;83198.64;;;0.34;45.88
70437;BME280;57877;39.750;-104.894;2022-11-03T13:59:29;83211.06;;;-0.22;47.50